Wesleyville, Canada
Current Conditions -  °F | °C
As of 3:13 PM on Sunday 23 Nov 2014 (Local Time) from CYQX Reporting Station
Snow Showers Snow Showers  
Wind Chill: 25°   Ceiling: 3200
Heat Index: 36°   Visibility: 15mi
Dew Point: 25°   Wind: 17mph
Humidity: 65%   Direction: 250°WSW
Pressure: 29.63"   Gusts: 24mph
Location:  49.15°N, 53.58°W
Report Text: CYQX 231813Z 25015G21KT 15SM -SHSN FEW018 BKN032 BKN074 02/M04 A2963 RMK CF1SC5AC1 SLP040
Loading
Personal Weather Stations






























Interactive Weather Map New forecast layout! Learn more

10-Day Weather Forecast

Advertisements
Track Severe Weather on mobile